sensor_id;sensor_type;location;lat;lon;timestamp;P1;durP1;ratioP1;P2;durP2;ratioP2
5730;SDS011;2890;51.950;7.668;2023-07-22T00:01:33;18.30;;;14.93;;
5730;SDS011;2890;51.950;7.668;2023-07-22T00:04:02;19.20;;;15.73;;
5730;SDS011;2890;51.950;7.668;2023-07-22T00:06:28;18.07;;;14.37;;
5730;SDS011;2890;51.950;7.668;2023-07-22T00:08:55;26.20;;;15.20;;
5730;SDS011;2890;51.950;7.668;2023-07-22T00:11:30;17.83;;;15.60;;
5730;SDS011;2890;51.950;7.668;2023-07-22T00:13:59;19.20;;;15.40;;
5730;SDS011;2890;51.950;7.668;2023-07-22T00:16:26;18.33;;;14.67;;
5730;SDS011;2890;51.950;7.668;2023-07-22T00:18:54;18.73;;;14.10;;
5730;SDS011;2890;51.950;7.668;2023-07-22T00:21:21;19.87;;;14.87;;
5730;SDS011;2890;51.950;7.668;2023-07-22T00:23:47;18.60;;;14.77;;
5730;SDS011;2890;51.950;7.668;2023-07-22T00:26:14;19.53;;;14.00;;
5730;SDS011;2890;51.950;7.668;2023-07-22T00:28:42;16.27;;;12.73;;
5730;SDS011;2890;51.950;7.668;2023-07-22T00:31:11;54.03;;;45.03;;
5730;SDS011;2890;51.950;7.668;2023-07-22T00:33:37;45.60;;;35.97;;
5730;SDS011;2890;51.950;7.668;2023-07-22T00:36:04;16.73;;;12.70;;
5730;SDS011;2890;51.950;7.668;2023-07-22T00:38:30;20.90;;;13.90;;
5730;SDS011;2890;51.950;7.668;2023-07-22T00:40:57;15.40;;;12.60;;
5730;SDS011;2890;51.950;7.668;2023-07-22T00:43:23;17.43;;;12.60;;
5730;SDS011;2890;51.950;7.668;2023-07-22T00:45:51;16.93;;;14.03;;
5730;SDS011;2890;51.950;7.668;2023-07-22T00:48:19;21.77;;;13.50;;
5730;SDS011;2890;51.950;7.668;2023-07-22T00:50:46;15.13;;;12.50;;
5730;SDS011;2890;51.950;7.668;2023-07-22T00:53:13;16.20;;;13.67;;
5730;SDS011;2890;51.950;7.668;2023-07-22T00:55:40;17.37;;;13.80;;
5730;SDS011;2890;51.950;7.668;2023-07-22T00:58:07;15.03;;;13.40;;
5730;SDS011;2890;51.950;7.668;2023-07-22T01:00:33;15.93;;;12.87;;
5730;SDS011;2890;51.950;7.668;2023-07-22T01:03:00;17.20;;;12.83;;
5730;SDS011;2890;51.950;7.668;2023-07-22T01:05:28;21.90;;;13.67;;
5730;SDS011;2890;51.950;7.668;2023-07-22T01:07:55;15.17;;;12.73;;
5730;SDS011;2890;51.950;7.668;2023-07-22T01:10:22;14.30;;;12.67;;
5730;SDS011;2890;51.950;7.668;2023-07-22T01:12:49;20.53;;;12.00;;
5730;SDS011;2890;51.950;7.668;2023-07-22T01:15:15;15.53;;;12.77;;
5730;SDS011;2890;51.950;7.668;2023-07-22T01:17:43;20.70;;;13.00;;
5730;SDS011;2890;51.950;7.668;2023-07-22T01:20:10;14.20;;;12.70;;
5730;SDS011;2890;51.950;7.668;2023-07-22T01:22:38;17.93;;;13.43;;
5730;SDS011;2890;51.950;7.668;2023-07-22T01:25:07;20.97;;;13.50;;
5730;SDS011;2890;51.950;7.668;2023-07-22T01:27:34;15.30;;;12.97;;
5730;SDS011;2890;51.950;7.668;2023-07-22T01:30:02;16.10;;;13.50;;
5730;SDS011;2890;51.950;7.668;2023-07-22T01:32:28;17.33;;;13.97;;
5730;SDS011;2890;51.950;7.668;2023-07-22T01:34:55;20.73;;;13.90;;
5730;SDS011;2890;51.950;7.668;2023-07-22T01:37:22;17.83;;;13.40;;
5730;SDS011;2890;51.950;7.668;2023-07-22T01:39:49;16.50;;;13.67;;
5730;SDS011;2890;51.950;7.668;2023-07-22T01:42:18;20.23;;;12.90;;
5730;SDS011;2890;51.950;7.668;2023-07-22T01:44:44;15.30;;;12.23;;
5730;SDS011;2890;51.950;7.668;2023-07-22T01:47:11;18.67;;;13.20;;
5730;SDS011;2890;51.950;7.668;2023-07-22T01:49:37;19.17;;;12.77;;
5730;SDS011;2890;51.950;7.668;2023-07-22T01:52:04;24.03;;;14.23;;
5730;SDS011;2890;51.950;7.668;2023-07-22T01:54:31;21.70;;;14.10;;
5730;SDS011;2890;51.950;7.668;2023-07-22T01:56:58;18.97;;;12.40;;
5730;SDS011;2890;51.950;7.668;2023-07-22T01:59:26;17.23;;;13.77;;
5730;SDS011;2890;51.950;7.668;2023-07-22T02:01:52;16.60;;;12.73;;
5730;SDS011;2890;51.950;7.668;2023-07-22T02:04:19;19.43;;;13.87;;
5730;SDS011;2890;51.950;7.668;2023-07-22T02:06:46;15.43;;;13.17;;
5730;SDS011;2890;51.950;7.668;2023-07-22T02:09:13;16.07;;;12.07;;
5730;SDS011;2890;51.950;7.668;2023-07-22T02:11:39;14.93;;;12.73;;
5730;SDS011;2890;51.950;7.668;2023-07-22T02:14:06;18.83;;;13.07;;
5730;SDS011;2890;51.950;7.668;2023-07-22T02:16:34;14.80;;;12.47;;
5730;SDS011;2890;51.950;7.668;2023-07-22T02:19:01;20.63;;;14.03;;
5730;SDS011;2890;51.950;7.668;2023-07-22T02:21:29;15.57;;;12.40;;
5730;SDS011;2890;51.950;7.668;2023-07-22T02:30:38;17.23;;;12.37;;
5730;SDS011;2890;51.950;7.668;2023-07-22T02:33:07;15.40;;;12.93;;
5730;SDS011;2890;51.950;7.668;2023-07-22T02:35:34;21.60;;;14.43;;
5730;SDS011;2890;51.950;7.668;2023-07-22T02:38:00;19.30;;;13.40;;
5730;SDS011;2890;51.950;7.668;2023-07-22T02:40:27;17.73;;;14.77;;
5730;SDS011;2890;51.950;7.668;2023-07-22T02:42:54;16.57;;;14.83;;
5730;SDS011;2890;51.950;7.668;2023-07-22T02:45:21;18.70;;;14.50;;
5730;SDS011;2890;51.950;7.668;2023-07-22T02:47:47;25.43;;;15.80;;
5730;SDS011;2890;51.950;7.668;2023-07-22T02:50:15;16.10;;;13.87;;
5730;SDS011;2890;51.950;7.668;2023-07-22T02:52:42;25.87;;;15.20;;
5730;SDS011;2890;51.950;7.668;2023-07-22T02:55:09;17.67;;;14.50;;
5730;SDS011;2890;51.950;7.668;2023-07-22T02:57:37;19.00;;;13.37;;
5730;SDS011;2890;51.950;7.668;2023-07-22T03:00:04;17.67;;;13.73;;
5730;SDS011;2890;51.950;7.668;2023-07-22T03:02:33;22.30;;;15.40;;
5730;SDS011;2890;51.950;7.668;2023-07-22T03:05:00;20.30;;;14.87;;
5730;SDS011;2890;51.950;7.668;2023-07-22T03:07:28;18.47;;;14.20;;
5730;SDS011;2890;51.950;7.668;2023-07-22T03:09:55;21.83;;;14.77;;
5730;SDS011;2890;51.950;7.668;2023-07-22T03:12:21;18.40;;;14.10;;
5730;SDS011;2890;51.950;7.668;2023-07-22T03:14:48;18.53;;;14.80;;
5730;SDS011;2890;51.950;7.668;2023-07-22T03:17:14;16.07;;;13.53;;
5730;SDS011;2890;51.950;7.668;2023-07-22T03:19:42;15.47;;;13.50;;
5730;SDS011;2890;51.950;7.668;2023-07-22T03:22:08;18.97;;;14.33;;
5730;SDS011;2890;51.950;7.668;2023-07-22T03:24:36;17.30;;;13.90;;
5730;SDS011;2890;51.950;7.668;2023-07-22T03:27:03;18.20;;;14.27;;
5730;SDS011;2890;51.950;7.668;2023-07-22T03:29:30;16.23;;;14.00;;
5730;SDS011;2890;51.950;7.668;2023-07-22T03:31:56;18.83;;;14.50;;
5730;SDS011;2890;51.950;7.668;2023-07-22T03:34:25;19.00;;;13.53;;
5730;SDS011;2890;51.950;7.668;2023-07-22T03:36:51;16.20;;;13.77;;
5730;SDS011;2890;51.950;7.668;2023-07-22T03:39:18;17.00;;;14.50;;
5730;SDS011;2890;51.950;7.668;2023-07-22T03:41:46;14.63;;;13.10;;
5730;SDS011;2890;51.950;7.668;2023-07-22T03:44:13;19.87;;;14.23;;
5730;SDS011;2890;51.950;7.668;2023-07-22T03:46:39;17.73;;;14.20;;
5730;SDS011;2890;51.950;7.668;2023-07-22T03:49:06;19.70;;;14.40;;
5730;SDS011;2890;51.950;7.668;2023-07-22T03:51:32;21.70;;;15.07;;
5730;SDS011;2890;51.950;7.668;2023-07-22T03:53:59;19.07;;;13.77;;
5730;SDS011;2890;51.950;7.668;2023-07-22T03:56:25;19.97;;;14.97;;
5730;SDS011;2890;51.950;7.668;2023-07-22T03:58:53;21.27;;;14.33;;
5730;SDS011;2890;51.950;7.668;2023-07-22T04:01:20;17.37;;;14.40;;
5730;SDS011;2890;51.950;7.668;2023-07-22T04:03:46;23.70;;;15.70;;
5730;SDS011;2890;51.950;7.668;2023-07-22T04:06:13;19.87;;;15.30;;
5730;SDS011;2890;51.950;7.668;2023-07-22T04:08:39;19.83;;;16.57;;
5730;SDS011;2890;51.950;7.668;2023-07-22T04:11:06;19.17;;;15.07;;
5730;SDS011;2890;51.950;7.668;2023-07-22T04:13:32;20.53;;;16.00;;
5730;SDS011;2890;51.950;7.668;2023-07-22T04:16:00;17.73;;;15.20;;
5730;SDS011;2890;51.950;7.668;2023-07-22T04:18:27;21.60;;;16.20;;
5730;SDS011;2890;51.950;7.668;2023-07-22T04:20:58;23.23;;;16.30;;
5730;SDS011;2890;51.950;7.668;2023-07-22T04:23:24;18.90;;;16.27;;
5730;SDS011;2890;51.950;7.668;2023-07-22T04:25:51;20.90;;;15.83;;
5730;SDS011;2890;51.950;7.668;2023-07-22T04:28:18;27.83;;;16.53;;
5730;SDS011;2890;51.950;7.668;2023-07-22T04:30:53;19.80;;;16.40;;
5730;SDS011;2890;51.950;7.668;2023-07-22T04:33:22;18.43;;;16.10;;
5730;SDS011;2890;51.950;7.668;2023-07-22T04:35:48;21.97;;;17.27;;
5730;SDS011;2890;51.950;7.668;2023-07-22T04:38:16;16.60;;;14.80;;
5730;SDS011;2890;51.950;7.668;2023-07-22T04:40:42;20.60;;;16.87;;
5730;SDS011;2890;51.950;7.668;2023-07-22T04:43:09;22.67;;;17.17;;
5730;SDS011;2890;51.950;7.668;2023-07-22T04:45:37;20.80;;;16.13;;
5730;SDS011;2890;51.950;7.668;2023-07-22T04:48:05;18.67;;;16.33;;
5730;SDS011;2890;51.950;7.668;2023-07-22T04:50:33;21.70;;;16.60;;
5730;SDS011;2890;51.950;7.668;2023-07-22T04:53:00;18.90;;;16.57;;
5730;SDS011;2890;51.950;7.668;2023-07-22T04:55:26;17.87;;;15.70;;
5730;SDS011;2890;51.950;7.668;2023-07-22T04:57:54;17.73;;;15.87;;
5730;SDS011;2890;51.950;7.668;2023-07-22T05:00:21;25.17;;;16.73;;
5730;SDS011;2890;51.950;7.668;2023-07-22T05:02:48;22.53;;;17.70;;
5730;SDS011;2890;51.950;7.668;2023-07-22T05:05:16;20.27;;;16.40;;
5730;SDS011;2890;51.950;7.668;2023-07-22T05:07:44;19.80;;;16.97;;
5730;SDS011;2890;51.950;7.668;2023-07-22T05:10:11;17.80;;;15.90;;
5730;SDS011;2890;51.950;7.668;2023-07-22T05:12:39;22.67;;;16.80;;
5730;SDS011;2890;51.950;7.668;2023-07-22T05:15:06;24.17;;;15.50;;
5730;SDS011;2890;51.950;7.668;2023-07-22T05:17:33;18.37;;;16.37;;
5730;SDS011;2890;51.950;7.668;2023-07-22T05:19:59;16.60;;;15.03;;
5730;SDS011;2890;51.950;7.668;2023-07-22T05:22:26;17.67;;;15.87;;
5730;SDS011;2890;51.950;7.668;2023-07-22T05:24:54;22.93;;;15.93;;
5730;SDS011;2890;51.950;7.668;2023-07-22T05:27:20;18.27;;;16.17;;
5730;SDS011;2890;51.950;7.668;2023-07-22T05:29:47;23.33;;;15.00;;
5730;SDS011;2890;51.950;7.668;2023-07-22T05:32:13;17.20;;;15.00;;
5730;SDS011;2890;51.950;7.668;2023-07-22T05:34:40;20.27;;;15.10;;
5730;SDS011;2890;51.950;7.668;2023-07-22T05:37:08;17.90;;;16.00;;
5730;SDS011;2890;51.950;7.668;2023-07-22T05:39:36;18.30;;;15.10;;
5730;SDS011;2890;51.950;7.668;2023-07-22T05:42:05;19.67;;;15.63;;
5730;SDS011;2890;51.950;7.668;2023-07-22T05:44:32;17.60;;;15.27;;
5730;SDS011;2890;51.950;7.668;2023-07-22T05:46:58;16.83;;;14.93;;
5730;SDS011;2890;51.950;7.668;2023-07-22T05:49:25;17.23;;;14.40;;
5730;SDS011;2890;51.950;7.668;2023-07-22T05:51:51;17.10;;;15.27;;
5730;SDS011;2890;51.950;7.668;2023-07-22T05:54:19;20.43;;;16.33;;
5730;SDS011;2890;51.950;7.668;2023-07-22T05:56:45;18.30;;;15.60;;
5730;SDS011;2890;51.950;7.668;2023-07-22T05:59:13;20.53;;;15.93;;
5730;SDS011;2890;51.950;7.668;2023-07-22T06:01:40;18.67;;;15.23;;
5730;SDS011;2890;51.950;7.668;2023-07-22T06:04:06;15.80;;;14.23;;
5730;SDS011;2890;51.950;7.668;2023-07-22T06:06:33;21.03;;;15.90;;
5730;SDS011;2890;51.950;7.668;2023-07-22T06:09:01;16.50;;;14.50;;
5730;SDS011;2890;51.950;7.668;2023-07-22T06:11:30;16.97;;;15.33;;
5730;SDS011;2890;51.950;7.668;2023-07-22T06:14:16;16.50;;;14.90;;
5730;SDS011;2890;51.950;7.668;2023-07-22T06:16:42;17.07;;;15.37;;
5730;SDS011;2890;51.950;7.668;2023-07-22T06:19:09;16.47;;;14.60;;
5730;SDS011;2890;51.950;7.668;2023-07-22T06:21:35;16.13;;;14.50;;
5730;SDS011;2890;51.950;7.668;2023-07-22T06:24:01;17.30;;;15.60;;
5730;SDS011;2890;51.950;7.668;2023-07-22T06:26:28;15.93;;;14.43;;
5730;SDS011;2890;51.950;7.668;2023-07-22T06:28:54;16.00;;;14.30;;
5730;SDS011;2890;51.950;7.668;2023-07-22T06:31:23;16.80;;;14.53;;
5730;SDS011;2890;51.950;7.668;2023-07-22T06:33:55;17.40;;;15.60;;
5730;SDS011;2890;51.950;7.668;2023-07-22T06:36:21;17.27;;;14.30;;
5730;SDS011;2890;51.950;7.668;2023-07-22T06:38:48;15.60;;;14.10;;
5730;SDS011;2890;51.950;7.668;2023-07-22T06:41:15;17.63;;;14.57;;
5730;SDS011;2890;51.950;7.668;2023-07-22T06:43:41;17.43;;;14.63;;
5730;SDS011;2890;51.950;7.668;2023-07-22T06:46:08;16.00;;;14.03;;
5730;SDS011;2890;51.950;7.668;2023-07-22T06:48:36;19.63;;;15.00;;
5730;SDS011;2890;51.950;7.668;2023-07-22T06:51:02;16.50;;;14.60;;
5730;SDS011;2890;51.950;7.668;2023-07-22T06:53:29;20.23;;;15.03;;
5730;SDS011;2890;51.950;7.668;2023-07-22T06:55:56;16.57;;;14.70;;
5730;SDS011;2890;51.950;7.668;2023-07-22T06:58:22;14.70;;;13.30;;
5730;SDS011;2890;51.950;7.668;2023-07-22T07:00:52;20.90;;;15.60;;
5730;SDS011;2890;51.950;7.668;2023-07-22T07:03:18;18.83;;;16.17;;
5730;SDS011;2890;51.950;7.668;2023-07-22T07:05:52;20.20;;;15.67;;
5730;SDS011;2890;51.950;7.668;2023-07-22T07:08:19;18.17;;;15.27;;
5730;SDS011;2890;51.950;7.668;2023-07-22T07:10:45;22.47;;;15.43;;
5730;SDS011;2890;51.950;7.668;2023-07-22T07:13:17;18.17;;;16.17;;
5730;SDS011;2890;51.950;7.668;2023-07-22T07:15:45;19.23;;;15.80;;
5730;SDS011;2890;51.950;7.668;2023-07-22T07:18:13;17.47;;;15.60;;
5730;SDS011;2890;51.950;7.668;2023-07-22T07:20:40;18.90;;;15.97;;
5730;SDS011;2890;51.950;7.668;2023-07-22T07:23:07;17.43;;;15.53;;
5730;SDS011;2890;51.950;7.668;2023-07-22T07:25:34;21.37;;;16.73;;
5730;SDS011;2890;51.950;7.668;2023-07-22T07:28:00;20.83;;;16.07;;
5730;SDS011;2890;51.950;7.668;2023-07-22T07:30:27;25.37;;;16.07;;
5730;SDS011;2890;51.950;7.668;2023-07-22T07:32:54;21.43;;;16.20;;
5730;SDS011;2890;51.950;7.668;2023-07-22T07:35:20;17.57;;;15.73;;
5730;SDS011;2890;51.950;7.668;2023-07-22T07:37:47;17.13;;;15.23;;
5730;SDS011;2890;51.950;7.668;2023-07-22T07:40:15;20.90;;;17.07;;
5730;SDS011;2890;51.950;7.668;2023-07-22T07:42:41;19.17;;;16.40;;
5730;SDS011;2890;51.950;7.668;2023-07-22T07:45:08;21.13;;;16.00;;
5730;SDS011;2890;51.950;7.668;2023-07-22T07:47:35;17.83;;;15.93;;
5730;SDS011;2890;51.950;7.668;2023-07-22T07:50:01;21.00;;;16.23;;
5730;SDS011;2890;51.950;7.668;2023-07-22T07:52:28;22.43;;;17.80;;
5730;SDS011;2890;51.950;7.668;2023-07-22T07:54:55;19.60;;;15.80;;
5730;SDS011;2890;51.950;7.668;2023-07-22T07:57:23;18.87;;;16.70;;
5730;SDS011;2890;51.950;7.668;2023-07-22T07:59:49;18.43;;;16.53;;
5730;SDS011;2890;51.950;7.668;2023-07-22T08:02:16;20.90;;;16.40;;
5730;SDS011;2890;51.950;7.668;2023-07-22T08:04:42;19.37;;;16.37;;
5730;SDS011;2890;51.950;7.668;2023-07-22T08:07:09;18.63;;;16.60;;
5730;SDS011;2890;51.950;7.668;2023-07-22T08:09:35;22.63;;;17.30;;
5730;SDS011;2890;51.950;7.668;2023-07-22T08:12:02;17.63;;;15.73;;
5730;SDS011;2890;51.950;7.668;2023-07-22T08:14:30;18.60;;;16.70;;
5730;SDS011;2890;51.950;7.668;2023-07-22T08:16:57;19.27;;;16.60;;
5730;SDS011;2890;51.950;7.668;2023-07-22T08:19:23;26.80;;;16.87;;
5730;SDS011;2890;51.950;7.668;2023-07-22T08:21:50;17.67;;;15.70;;
5730;SDS011;2890;51.950;7.668;2023-07-22T08:24:16;15.30;;;13.73;;
5730;SDS011;2890;51.950;7.668;2023-07-22T08:26:43;16.13;;;14.53;;
5730;SDS011;2890;51.950;7.668;2023-07-22T08:29:09;14.70;;;13.20;;
5730;SDS011;2890;51.950;7.668;2023-07-22T08:31:38;14.20;;;12.80;;
5730;SDS011;2890;51.950;7.668;2023-07-22T08:34:04;15.07;;;13.53;;
5730;SDS011;2890;51.950;7.668;2023-07-22T08:36:31;16.33;;;13.13;;
5730;SDS011;2890;51.950;7.668;2023-07-22T08:38:57;14.50;;;13.10;;
5730;SDS011;2890;51.950;7.668;2023-07-22T08:41:24;14.30;;;12.90;;
5730;SDS011;2890;51.950;7.668;2023-07-22T08:43:51;16.40;;;12.40;;
5730;SDS011;2890;51.950;7.668;2023-07-22T08:46:20;17.70;;;12.20;;
5730;SDS011;2890;51.950;7.668;2023-07-22T08:48:51;15.60;;;14.00;;
5730;SDS011;2890;51.950;7.668;2023-07-22T08:51:20;15.40;;;13.83;;
5730;SDS011;2890;51.950;7.668;2023-07-22T08:53:48;15.30;;;13.07;;
5730;SDS011;2890;51.950;7.668;2023-07-22T08:56:15;14.70;;;13.27;;
5730;SDS011;2890;51.950;7.668;2023-07-22T08:58:42;14.80;;;13.30;;
5730;SDS011;2890;51.950;7.668;2023-07-22T09:01:10;15.97;;;14.13;;
5730;SDS011;2890;51.950;7.668;2023-07-22T09:03:36;15.73;;;13.90;;
5730;SDS011;2890;51.950;7.668;2023-07-22T09:06:05;16.13;;;14.50;;
5730;SDS011;2890;51.950;7.668;2023-07-22T09:08:32;14.13;;;12.87;;
5730;SDS011;2890;51.950;7.668;2023-07-22T09:10:59;16.10;;;13.77;;
5730;SDS011;2890;51.950;7.668;2023-07-22T09:13:26;14.80;;;13.30;;
5730;SDS011;2890;51.950;7.668;2023-07-22T09:15:53;15.37;;;13.80;;
5730;SDS011;2890;51.950;7.668;2023-07-22T09:18:19;14.27;;;12.97;;
5730;SDS011;2890;51.950;7.668;2023-07-22T09:20:46;18.30;;;16.43;;
5730;SDS011;2890;51.950;7.668;2023-07-22T09:23:14;13.70;;;12.50;;
5730;SDS011;2890;51.950;7.668;2023-07-22T09:25:41;12.93;;;11.63;;
5730;SDS011;2890;51.950;7.668;2023-07-22T09:28:08;11.63;;;10.63;;
5730;SDS011;2890;51.950;7.668;2023-07-22T09:30:36;12.80;;;10.43;;
5730;SDS011;2890;51.950;7.668;2023-07-22T09:33:04;11.73;;;10.73;;
5730;SDS011;2890;51.950;7.668;2023-07-22T09:35:35;12.33;;;11.27;;
5730;SDS011;2890;51.950;7.668;2023-07-22T09:38:10;12.27;;;10.27;;
5730;SDS011;2890;51.950;7.668;2023-07-22T09:40:39;9.80;;;9.00;;
5730;SDS011;2890;51.950;7.668;2023-07-22T09:43:08;10.60;;;9.07;;
5730;SDS011;2890;51.950;7.668;2023-07-22T09:45:37;11.70;;;10.70;;
5730;SDS011;2890;51.950;7.668;2023-07-22T09:48:03;12.20;;;11.00;;
5730;SDS011;2890;51.950;7.668;2023-07-22T09:50:30;14.13;;;10.70;;
5730;SDS011;2890;51.950;7.668;2023-07-22T09:52:57;10.57;;;9.40;;
5730;SDS011;2890;51.950;7.668;2023-07-22T09:55:25;12.10;;;10.97;;
5730;SDS011;2890;51.950;7.668;2023-07-22T09:57:56;11.00;;;10.10;;
5730;SDS011;2890;51.950;7.668;2023-07-22T10:00:24;10.97;;;9.97;;
5730;SDS011;2890;51.950;7.668;2023-07-22T10:02:56;11.57;;;10.23;;
5730;SDS011;2890;51.950;7.668;2023-07-22T10:05:22;10.53;;;9.53;;
5730;SDS011;2890;51.950;7.668;2023-07-22T10:07:51;12.13;;;11.00;;
5730;SDS011;2890;51.950;7.668;2023-07-22T10:10:19;10.60;;;9.60;;
5730;SDS011;2890;51.950;7.668;2023-07-22T10:12:47;11.57;;;9.20;;
5730;SDS011;2890;51.950;7.668;2023-07-22T10:15:15;8.60;;;7.90;;
5730;SDS011;2890;51.950;7.668;2023-07-22T10:17:44;10.17;;;9.37;;
5730;SDS011;2890;51.950;7.668;2023-07-22T10:20:12;11.20;;;9.87;;
5730;SDS011;2890;51.950;7.668;2023-07-22T10:22:41;9.30;;;8.53;;
5730;SDS011;2890;51.950;7.668;2023-07-22T10:25:10;9.17;;;8.30;;
5730;SDS011;2890;51.950;7.668;2023-07-22T10:27:37;9.70;;;8.87;;
5730;SDS011;2890;51.950;7.668;2023-07-22T10:30:05;9.20;;;8.17;;
5730;SDS011;2890;51.950;7.668;2023-07-22T10:32:34;9.83;;;8.60;;
5730;SDS011;2890;51.950;7.668;2023-07-22T10:35:02;9.97;;;9.07;;
5730;SDS011;2890;51.950;7.668;2023-07-22T10:37:30;9.30;;;8.53;;
5730;SDS011;2890;51.950;7.668;2023-07-22T10:39:58;9.23;;;8.33;;
5730;SDS011;2890;51.950;7.668;2023-07-22T10:42:26;8.63;;;7.83;;
5730;SDS011;2890;51.950;7.668;2023-07-22T10:44:52;8.03;;;7.27;;
5730;SDS011;2890;51.950;7.668;2023-07-22T10:47:31;8.10;;;7.40;;
5730;SDS011;2890;51.950;7.668;2023-07-22T10:50:05;9.10;;;7.70;;
5730;SDS011;2890;51.950;7.668;2023-07-22T10:52:43;7.87;;;7.27;;
5730;SDS011;2890;51.950;7.668;2023-07-22T10:55:16;8.33;;;7.73;;
5730;SDS011;2890;51.950;7.668;2023-07-22T10:57:47;9.97;;;8.43;;
5730;SDS011;2890;51.950;7.668;2023-07-22T11:00:18;10.87;;;8.00;;
5730;SDS011;2890;51.950;7.668;2023-07-22T11:02:45;7.33;;;6.73;;
5730;SDS011;2890;51.950;7.668;2023-07-22T11:05:15;7.60;;;6.90;;
5730;SDS011;2890;51.950;7.668;2023-07-22T11:07:43;7.10;;;6.53;;
5730;SDS011;2890;51.950;7.668;2023-07-22T11:10:14;7.90;;;7.20;;
5730;SDS011;2890;51.950;7.668;2023-07-22T11:12:42;7.27;;;6.63;;
5730;SDS011;2890;51.950;7.668;2023-07-22T11:15:09;6.77;;;6.37;;
5730;SDS011;2890;51.950;7.668;2023-07-22T11:17:36;7.20;;;6.70;;
5730;SDS011;2890;51.950;7.668;2023-07-22T11:20:03;6.07;;;5.67;;
5730;SDS011;2890;51.950;7.668;2023-07-22T11:22:32;7.50;;;6.67;;
5730;SDS011;2890;51.950;7.668;2023-07-22T11:24:59;6.90;;;6.30;;
5730;SDS011;2890;51.950;7.668;2023-07-22T11:27:26;6.73;;;6.13;;
5730;SDS011;2890;51.950;7.668;2023-07-22T11:29:53;7.33;;;6.60;;
5730;SDS011;2890;51.950;7.668;2023-07-22T11:32:19;6.67;;;6.17;;
5730;SDS011;2890;51.950;7.668;2023-07-22T11:34:47;7.20;;;6.30;;
5730;SDS011;2890;51.950;7.668;2023-07-22T11:37:14;6.83;;;6.23;;
5730;SDS011;2890;51.950;7.668;2023-07-22T11:39:43;6.40;;;6.00;;
5730;SDS011;2890;51.950;7.668;2023-07-22T11:42:09;7.80;;;7.20;;
5730;SDS011;2890;51.950;7.668;2023-07-22T11:44:37;6.57;;;6.07;;
5730;SDS011;2890;51.950;7.668;2023-07-22T11:47:04;7.90;;;7.40;;
5730;SDS011;2890;51.950;7.668;2023-07-22T11:49:33;7.83;;;7.10;;
5730;SDS011;2890;51.950;7.668;2023-07-22T11:52:01;7.30;;;6.70;;
5730;SDS011;2890;51.950;7.668;2023-07-22T11:54:29;6.47;;;6.00;;
5730;SDS011;2890;51.950;7.668;2023-07-22T11:57:08;7.60;;;7.00;;
5730;SDS011;2890;51.950;7.668;2023-07-22T11:59:36;7.90;;;7.07;;
5730;SDS011;2890;51.950;7.668;2023-07-22T12:02:03;9.70;;;6.70;;
5730;SDS011;2890;51.950;7.668;2023-07-22T12:04:31;13.03;;;8.00;;
5730;SDS011;2890;51.950;7.668;2023-07-22T12:06:58;7.63;;;7.13;;
5730;SDS011;2890;51.950;7.668;2023-07-22T12:09:25;8.37;;;7.57;;
5730;SDS011;2890;51.950;7.668;2023-07-22T12:11:55;7.90;;;7.30;;
5730;SDS011;2890;51.950;7.668;2023-07-22T12:14:23;10.13;;;6.50;;
5730;SDS011;2890;51.950;7.668;2023-07-22T12:16:52;7.70;;;7.07;;
5730;SDS011;2890;51.950;7.668;2023-07-22T12:19:21;6.87;;;6.40;;
5730;SDS011;2890;51.950;7.668;2023-07-22T12:21:48;6.27;;;5.83;;
5730;SDS011;2890;51.950;7.668;2023-07-22T12:24:14;6.67;;;6.10;;
5730;SDS011;2890;51.950;7.668;2023-07-22T12:26:41;5.87;;;5.47;;
5730;SDS011;2890;51.950;7.668;2023-07-22T12:29:07;6.63;;;6.03;;
5730;SDS011;2890;51.950;7.668;2023-07-22T12:31:35;6.80;;;6.20;;
5730;SDS011;2890;51.950;7.668;2023-07-22T12:34:02;7.10;;;5.40;;
5730;SDS011;2890;51.950;7.668;2023-07-22T12:36:28;5.63;;;5.00;;
5730;SDS011;2890;51.950;7.668;2023-07-22T12:38:55;8.37;;;5.80;;
5730;SDS011;2890;51.950;7.668;2023-07-22T12:41:21;5.70;;;5.30;;
5730;SDS011;2890;51.950;7.668;2023-07-22T12:43:48;5.67;;;5.20;;
5730;SDS011;2890;51.950;7.668;2023-07-22T12:46:14;5.70;;;5.20;;
5730;SDS011;2890;51.950;7.668;2023-07-22T12:48:42;6.20;;;5.60;;
5730;SDS011;2890;51.950;7.668;2023-07-22T12:51:09;5.83;;;5.40;;
5730;SDS011;2890;51.950;7.668;2023-07-22T12:53:35;5.77;;;5.20;;
5730;SDS011;2890;51.950;7.668;2023-07-22T12:56:02;5.37;;;5.00;;
5730;SDS011;2890;51.950;7.668;2023-07-22T12:58:28;4.97;;;4.57;;
5730;SDS011;2890;51.950;7.668;2023-07-22T13:00:54;5.20;;;4.70;;
5730;SDS011;2890;51.950;7.668;2023-07-22T13:03:21;5.30;;;4.93;;
5730;SDS011;2890;51.950;7.668;2023-07-22T13:05:49;5.30;;;4.90;;
5730;SDS011;2890;51.950;7.668;2023-07-22T13:08:15;6.40;;;5.90;;
5730;SDS011;2890;51.950;7.668;2023-07-22T13:10:42;6.33;;;5.73;;
5730;SDS011;2890;51.950;7.668;2023-07-22T13:13:12;5.80;;;5.30;;
5730;SDS011;2890;51.950;7.668;2023-07-22T13:15:38;5.97;;;5.47;;
5730;SDS011;2890;51.950;7.668;2023-07-22T13:18:05;5.00;;;4.50;;
5730;SDS011;2890;51.950;7.668;2023-07-22T13:20:32;4.90;;;4.50;;
5730;SDS011;2890;51.950;7.668;2023-07-22T13:23:00;5.23;;;4.73;;
5730;SDS011;2890;51.950;7.668;2023-07-22T13:25:26;5.17;;;4.77;;
5730;SDS011;2890;51.950;7.668;2023-07-22T13:27:53;5.30;;;4.90;;
5730;SDS011;2890;51.950;7.668;2023-07-22T13:30:20;6.00;;;4.97;;
5730;SDS011;2890;51.950;7.668;2023-07-22T13:32:46;4.87;;;4.37;;
5730;SDS011;2890;51.950;7.668;2023-07-22T13:35:13;5.03;;;4.63;;
5730;SDS011;2890;51.950;7.668;2023-07-22T13:37:39;4.93;;;4.63;;
5730;SDS011;2890;51.950;7.668;2023-07-22T13:40:08;4.63;;;4.33;;
5730;SDS011;2890;51.950;7.668;2023-07-22T13:42:36;5.30;;;3.90;;
5730;SDS011;2890;51.950;7.668;2023-07-22T13:45:03;4.23;;;3.93;;
5730;SDS011;2890;51.950;7.668;2023-07-22T13:47:30;4.27;;;3.93;;
5730;SDS011;2890;51.950;7.668;2023-07-22T13:49:57;4.63;;;4.23;;
5730;SDS011;2890;51.950;7.668;2023-07-22T13:52:23;4.53;;;4.13;;
5730;SDS011;2890;51.950;7.668;2023-07-22T13:54:50;4.03;;;3.73;;
5730;SDS011;2890;51.950;7.668;2023-07-22T13:57:18;4.37;;;3.93;;
5730;SDS011;2890;51.950;7.668;2023-07-22T13:59:44;4.70;;;4.40;;
5730;SDS011;2890;51.950;7.668;2023-07-22T14:02:11;4.43;;;3.83;;
5730;SDS011;2890;51.950;7.668;2023-07-22T14:04:37;4.70;;;4.23;;
5730;SDS011;2890;51.950;7.668;2023-07-22T14:07:05;4.87;;;3.70;;
5730;SDS011;2890;51.950;7.668;2023-07-22T14:09:31;5.47;;;3.70;;
5730;SDS011;2890;51.950;7.668;2023-07-22T14:11:58;4.83;;;3.70;;
5730;SDS011;2890;51.950;7.668;2023-07-22T14:14:26;4.67;;;4.23;;
5730;SDS011;2890;51.950;7.668;2023-07-22T14:16:53;3.83;;;3.53;;
5730;SDS011;2890;51.950;7.668;2023-07-22T14:19:20;3.80;;;3.50;;
5730;SDS011;2890;51.950;7.668;2023-07-22T14:21:47;4.60;;;4.20;;
5730;SDS011;2890;51.950;7.668;2023-07-22T14:24:13;4.50;;;3.90;;
5730;SDS011;2890;51.950;7.668;2023-07-22T14:26:40;8.50;;;3.77;;
5730;SDS011;2890;51.950;7.668;2023-07-22T14:29:06;4.30;;;3.77;;
5730;SDS011;2890;51.950;7.668;2023-07-22T14:31:34;4.83;;;3.80;;
5730;SDS011;2890;51.950;7.668;2023-07-22T14:34:00;3.63;;;3.33;;
5730;SDS011;2890;51.950;7.668;2023-07-22T14:36:27;4.87;;;4.57;;
5730;SDS011;2890;51.950;7.668;2023-07-22T14:38:53;6.50;;;3.70;;
5730;SDS011;2890;51.950;7.668;2023-07-22T14:41:20;4.23;;;3.63;;
5730;SDS011;2890;51.950;7.668;2023-07-22T14:43:47;3.20;;;3.00;;
5730;SDS011;2890;51.950;7.668;2023-07-22T14:46:14;3.37;;;3.10;;
5730;SDS011;2890;51.950;7.668;2023-07-22T14:48:42;3.57;;;3.20;;
5730;SDS011;2890;51.950;7.668;2023-07-22T14:51:10;4.57;;;3.40;;
5730;SDS011;2890;51.950;7.668;2023-07-22T14:53:36;3.67;;;3.37;;
5730;SDS011;2890;51.950;7.668;2023-07-22T14:56:03;3.67;;;3.40;;
5730;SDS011;2890;51.950;7.668;2023-07-22T14:58:31;4.03;;;3.63;;
5730;SDS011;2890;51.950;7.668;2023-07-22T15:00:57;5.80;;;3.80;;
5730;SDS011;2890;51.950;7.668;2023-07-22T15:03:24;3.87;;;3.57;;
5730;SDS011;2890;51.950;7.668;2023-07-22T15:05:52;3.90;;;3.60;;